createdAt,value
2023-04-20T00:01:07.792Z,102548.91
2023-04-20T00:06:09.448Z,102537.66
2023-04-20T00:11:11.132Z,102524.69
2023-04-20T00:16:15.399Z,102530.28
2023-04-20T00:21:24.083Z,102520.44
2023-04-20T00:26:28.024Z,102511.59
2023-04-20T00:31:31.646Z,102497.53
2023-04-20T00:36:35.672Z,102489.19
2023-04-20T00:41:40.003Z,102480.88
2023-04-20T00:46:43.864Z,102474.81
2023-04-20T00:51:45.595Z,102459.31
2023-04-20T00:56:49.734Z,102459.41
2023-04-20T01:01:53.984Z,102452.28
2023-04-20T01:06:58.850Z,102441.50
2023-04-20T01:12:04.957Z,102422.94
2023-04-20T01:17:09.667Z,102418.19
2023-04-20T01:22:19.577Z,102407.91
2023-04-20T01:27:21.319Z,102405.13
2023-04-20T01:32:23.182Z,102401.59
2023-04-20T01:37:27.476Z,102394.44
2023-04-20T01:42:31.452Z,102390.91
2023-04-20T01:47:34.223Z,102394.56
2023-04-20T01:52:36.147Z,102386.53
2023-04-20T01:57:42.174Z,102381.31
2023-04-20T02:02:44.080Z,102380.72
2023-04-20T02:07:45.912Z,102368.19
2023-04-20T02:12:50.293Z,102351.28
2023-04-20T02:17:52.552Z,102350.03
2023-04-20T02:22:56.749Z,102361.72
2023-04-20T02:27:58.550Z,102362.56
2023-04-20T02:33:02.552Z,102358.34
2023-04-20T02:38:09.191Z,102355.38
2023-04-20T02:43:13.521Z,102349.31
2023-04-20T02:48:19.494Z,102355.19
2023-04-20T02:53:21.561Z,102343.94
2023-04-20T02:58:35.029Z,102363.16
2023-04-20T03:04:02.797Z,102349.94
2023-04-20T03:09:09.501Z,102345.84
2023-04-20T03:14:31.461Z,102329.53
2023-04-20T03:19:36.707Z,102330.38
2023-04-20T03:24:43.948Z,102340.75
2023-04-20T03:29:58.876Z,102334.06
2023-04-20T03:35:02.963Z,102322.72
2023-04-20T03:40:11.146Z,102305.84
2023-04-20T03:45:15.684Z,102290.13
2023-04-20T03:50:21.986Z,102266.19
2023-04-20T03:55:26.514Z,102285.09
2023-04-20T04:00:36.638Z,102284.88
2023-04-20T04:05:44.194Z,102278.13
2023-04-20T04:10:45.951Z,102281.19
2023-04-20T04:15:50.043Z,102277.81
2023-04-20T04:20:54.571Z,102289.47
2023-04-20T04:25:58.773Z,102271.59
2023-04-20T04:31:06.083Z,102287.13
2023-04-20T04:36:09.478Z,102278.91
2023-04-20T04:41:14.513Z,102282.13
2023-04-20T04:46:21.607Z,102278.75
2023-04-20T04:51:25.903Z,102276.59
2023-04-20T04:56:28.515Z,102285.69
2023-04-20T05:01:32.508Z,102293.69
2023-04-20T05:06:36.534Z,102288.41
2023-04-20T05:11:45.485Z,102288.38
2023-04-20T05:16:47.293Z,102295.50
2023-04-20T05:21:49.140Z,102298.75
2023-04-20T05:26:50.829Z,102299.09
2023-04-20T05:31:52.547Z,102306.56
2023-04-20T05:36:58.786Z,102302.00
2023-04-20T05:42:03.055Z,102301.06
2023-04-20T05:47:09.837Z,102295.41
2023-04-20T05:52:13.816Z,102326.69
2023-04-20T05:57:15.661Z,102329.25
2023-04-20T06:02:19.468Z,102326.50
2023-04-20T06:07:25.954Z,102337.66
2023-04-20T06:12:30.805Z,102329.19
2023-04-20T06:17:35.256Z,102323.25
2023-04-20T06:22:39.785Z,102325.31
2023-04-20T06:27:46.644Z,102320.00
2023-04-20T06:32:48.384Z,102329.66
2023-04-20T06:37:50.049Z,102316.59
2023-04-20T06:42:51.722Z,102318.28
2023-04-20T06:47:55.276Z,102313.09
2023-04-20T06:52:59.349Z,102311.03
2023-04-20T06:58:01.343Z,102326.50
2023-04-20T07:03:05.420Z,102325.19
2023-04-20T07:08:09.682Z,102328.78
2023-04-20T07:13:16.505Z,102320.34
2023-04-20T07:18:20.528Z,102325.06
2023-04-20T07:23:24.531Z,102325.91
2023-04-20T07:28:26.305Z,102334.03
2023-04-20T07:33:29.861Z,102324.81
2023-04-20T07:38:34.063Z,102328.19
2023-04-20T07:43:35.792Z,102317.53
2023-04-20T07:48:37.560Z,102329.28
2023-04-20T07:53:42.238Z,102328.31
2023-04-20T07:58:46.610Z,102330.97
2023-04-20T08:03:50.826Z,102341.50
2023-04-20T08:08:54.814Z,102335.81
2023-04-20T08:14:01.916Z,102335.31
2023-04-20T08:24:21.884Z,102333.72
2023-04-20T08:29:23.544Z,102339.13
2023-04-20T08:34:27.796Z,102335.34
2023-04-20T08:39:30.470Z,102339.38
2023-04-20T08:44:35.028Z,102346.78
2023-04-20T08:49:41.302Z,102339.25
2023-04-20T08:54:56.093Z,102342.16
2023-04-20T09:00:07.926Z,102356.47
2023-04-20T09:05:12.303Z,102361.72
2023-04-20T09:10:16.309Z,102370.28
2023-04-20T09:15:28.382Z,102363.25
2023-04-20T09:20:31.942Z,102350.13
2023-04-20T09:25:38.741Z,102371.84
2023-04-20T09:30:45.770Z,102369.56
2023-04-20T09:35:49.993Z,102373.06
2023-04-20T09:40:54.033Z,102377.25
2023-04-20T09:45:58.106Z,102374.94
2023-04-20T09:51:03.314Z,102375.81
2023-04-20T09:56:07.875Z,102343.66
2023-04-20T10:01:11.041Z,102372.56
2023-04-20T10:06:24.568Z,102370.06
2023-04-20T10:11:48.811Z,102371.78
2023-04-20T10:17:02.449Z,102373.88
2023-04-20T10:22:06.846Z,102380.09
2023-04-20T10:27:19.349Z,102364.88
2023-04-20T10:32:28.958Z,102358.34
2023-04-20T10:37:32.022Z,102350.25
2023-04-20T10:42:43.849Z,102346.47
2023-04-20T10:47:45.951Z,102334.19
2023-04-20T10:52:49.718Z,102334.69
2023-04-20T10:57:54.085Z,102330.53
2023-04-20T11:02:57.175Z,102348.34
2023-04-20T11:08:01.432Z,102347.97
2023-04-20T11:13:05.483Z,102334.91
2023-04-20T11:18:08.589Z,102343.81
2023-04-20T11:23:12.539Z,102342.44
2023-04-20T11:28:17.098Z,102344.81
2023-04-20T11:33:29.313Z,102333.13
2023-04-20T11:38:33.002Z,102341.00
2023-04-20T11:43:38.397Z,102331.38
2023-04-20T11:48:40.259Z,102331.28
2023-04-20T11:53:46.701Z,102324.59
2023-04-20T11:58:50.933Z,102330.47
2023-04-20T12:03:55.638Z,102317.75
2023-04-20T12:08:57.957Z,102316.44
2023-04-20T12:14:02.047Z,102320.91
2023-04-20T12:19:05.960Z,102316.91
2023-04-20T12:24:07.928Z,102323.50
2023-04-20T12:29:12.904Z,102315.06
2023-04-20T12:34:19.289Z,102307.88
2023-04-20T12:39:21.902Z,102309.16
2023-04-20T12:44:26.661Z,102314.84
2023-04-20T12:49:33.159Z,102303.78
2023-04-20T12:54:35.466Z,102309.00
2023-04-20T12:59:39.689Z,102309.81
2023-04-20T13:04:41.609Z,102312.31
2023-04-20T13:09:43.665Z,102307.56
2023-04-20T13:14:47.662Z,102297.91
2023-04-20T13:19:49.839Z,102305.59
2023-04-20T13:24:53.749Z,102313.00
2023-04-20T13:29:55.777Z,102305.47
2023-04-20T13:34:58.113Z,102304.09
2023-04-20T13:40:00.398Z,102299.63
2023-04-20T13:45:02.500Z,102302.50
2023-04-20T13:50:06.941Z,102281.94
2023-04-20T13:55:09.314Z,102278.94
2023-04-20T14:00:11.628Z,102274.88
2023-04-20T14:05:15.680Z,102252.47
2023-04-20T14:10:17.399Z,102244.16
2023-04-20T14:15:21.914Z,102249.38
2023-04-20T14:20:23.882Z,102245.16
2023-04-20T14:25:28.209Z,102246.06
2023-04-20T14:30:32.423Z,102254.22
2023-04-20T14:35:34.322Z,102251.53
2023-04-20T14:40:38.427Z,102255.94
2023-04-20T14:45:45.633Z,102253.34
2023-04-20T14:50:49.612Z,102247.72
2023-04-20T14:55:51.458Z,102255.19
2023-04-20T15:00:54.694Z,102237.44
2023-04-20T15:06:00.787Z,102236.06
2023-04-20T15:11:09.864Z,102238.03
2023-04-20T15:16:11.917Z,102234.28
2023-04-20T15:21:16.111Z,102221.88
2023-04-20T15:26:20.984Z,102220.59
2023-04-20T15:31:22.811Z,102208.97
2023-04-20T15:36:24.630Z,102204.75
2023-04-20T15:41:28.661Z,102198.72
2023-04-20T15:46:30.527Z,102191.59
2023-04-20T15:51:32.455Z,102190.06
2023-04-20T15:56:34.193Z,102188.19
2023-04-20T16:01:38.413Z,102185.97
2023-04-20T16:06:42.330Z,102174.09
2023-04-20T16:11:44.191Z,102171.63
2023-04-20T16:16:46.061Z,102174.31
2023-04-20T16:21:50.321Z,102173.16
2023-04-20T16:26:56.772Z,102173.16
2023-04-20T16:31:58.609Z,102164.28
2023-04-20T16:37:02.553Z,102161.22
2023-04-20T16:42:08.688Z,102168.19
2023-04-20T16:47:10.524Z,102157.78
2023-04-20T16:52:12.322Z,102153.50
2023-04-20T16:57:17.512Z,102154.88
2023-04-20T17:02:21.753Z,102139.50
2023-04-20T17:07:23.879Z,102135.13
2023-04-20T17:12:30.393Z,102131.94
2023-04-20T17:17:32.881Z,102135.13
2023-04-20T17:22:35.535Z,102124.63
2023-04-20T17:27:37.250Z,102135.13
2023-04-20T17:32:39.100Z,102128.69
2023-04-20T17:37:43.140Z,102136.00
2023-04-20T17:42:47.476Z,102132.19
2023-04-20T17:47:53.549Z,102129.41
2023-04-20T17:52:55.624Z,102123.97
2023-04-20T17:57:57.373Z,102124.19
2023-04-20T18:03:01.433Z,102125.63
2023-04-20T18:08:06.697Z,102134.13
2023-04-20T18:13:11.940Z,102125.84
2023-04-20T18:18:13.860Z,102125.44
2023-04-20T18:23:15.742Z,102131.38
2023-04-20T18:28:17.675Z,102131.97
2023-04-20T18:33:24.392Z,102131.75
2023-04-20T18:38:26.062Z,102136.53
2023-04-20T18:43:32.538Z,102138.81
2023-04-20T18:48:34.291Z,102151.03
2023-04-20T18:53:38.511Z,102161.34
2023-04-20T18:58:40.257Z,102145.06
2023-04-20T19:03:45.517Z,102141.81
2023-04-20T19:08:55.300Z,102129.91
2023-04-20T19:13:57.204Z,102138.38
2023-04-20T19:18:59.545Z,102148.19
2023-04-20T19:24:03.743Z,102135.97
2023-04-20T19:29:08.676Z,102144.44
2023-04-20T19:34:13.486Z,102145.56
2023-04-20T19:39:20.456Z,102137.00
2023-04-20T19:44:24.625Z,102151.53
2023-04-20T19:49:26.928Z,102152.25
2023-04-20T19:54:28.691Z,102151.53
2023-04-20T19:59:32.769Z,102157.31
2023-04-20T20:04:38.045Z,102149.84
2023-04-20T20:09:44.913Z,102151.81
2023-04-20T20:14:46.636Z,102151.84
2023-04-20T20:19:53.782Z,102153.41
2023-04-20T20:25:01.205Z,102152.31
2023-04-20T20:30:08.144Z,102153.44
2023-04-20T20:35:11.640Z,102148.94
2023-04-20T20:40:16.661Z,102147.41
2023-04-20T20:45:18.480Z,102150.34
2023-04-20T20:50:20.795Z,102152.88
2023-04-20T20:55:22.546Z,102147.94
2023-04-20T21:00:24.474Z,102147.09
2023-04-20T21:05:26.174Z,102151.28
2023-04-20T21:10:27.897Z,102139.91
2023-04-20T21:15:34.194Z,102142.41
2023-04-20T21:20:35.869Z,102135.09
2023-04-20T21:25:37.618Z,102144.94
2023-04-20T21:30:39.359Z,102129.47
2023-04-20T21:35:43.312Z,102138.19
2023-04-20T21:40:45.033Z,102131.69
2023-04-20T21:45:46.720Z,102135.75
2023-04-20T21:50:48.481Z,102137.13
2023-04-20T21:55:52.415Z,102134.75
2023-04-20T22:00:54.091Z,102136.13
2023-04-20T22:05:58.994Z,102144.28
2023-04-20T22:11:00.722Z,102142.69
2023-04-20T22:16:05.050Z,102142.44
2023-04-20T22:21:09.162Z,102138.47
2023-04-20T22:26:10.893Z,102131.41
2023-04-20T22:31:14.974Z,102137.31
2023-04-20T22:36:20.367Z,102136.72
2023-04-20T22:41:22.124Z,102125.63
2023-04-20T22:46:23.789Z,102123.09
2023-04-20T22:51:29.047Z,102127.09
2023-04-20T22:56:35.539Z,102124.41
2023-04-20T23:01:42.912Z,102127.88
2023-04-20T23:06:47.298Z,102124.19
2023-04-20T23:11:49.075Z,102111.09
2023-04-20T23:16:51.089Z,102109.44
2023-04-20T23:21:55.229Z,102110.78
2023-04-20T23:27:00.278Z,102111.91
2023-04-20T23:32:04.215Z,102100.25
2023-04-20T23:37:08.130Z,102109.34
2023-04-20T23:42:12.010Z,102092.22
2023-04-20T23:47:17.600Z,102093.31
2023-04-20T23:52:19.268Z,102088.25
2023-04-20T23:57:23.005Z,102081.53
